createdAt,value
2019-05-02T00:01:12.536Z,42.27
2019-05-02T00:03:41.096Z,55.50
2019-05-02T00:06:09.236Z,40.80
2019-05-02T00:08:35.512Z,46.40
2019-05-02T00:11:02.077Z,46.10
2019-05-02T00:13:28.397Z,47.13
2019-05-02T00:15:55.159Z,41.70
2019-05-02T00:18:21.515Z,44.63
2019-05-02T00:20:47.667Z,34.00
2019-05-02T00:23:14.228Z,39.93
2019-05-02T00:25:40.378Z,35.40
2019-05-02T00:28:07.749Z,43.57
2019-05-02T00:30:35.844Z,36.33
2019-05-02T00:33:02.264Z,46.27
2019-05-02T00:35:28.312Z,39.90
2019-05-02T00:37:57.347Z,44.43
2019-05-02T00:40:25.607Z,40.10
2019-05-02T00:42:53.286Z,41.97
2019-05-02T00:45:18.727Z,48.27
2019-05-02T00:48:03.204Z,40.53
2019-05-02T00:50:31.174Z,42.90
2019-05-02T00:52:57.231Z,37.43
2019-05-02T00:55:23.288Z,36.87
2019-05-02T00:57:51.001Z,38.30
2019-05-02T01:00:18.489Z,38.57
2019-05-02T01:02:56.007Z,37.73
2019-05-02T01:05:22.064Z,40.23
2019-05-02T01:07:48.126Z,41.67
2019-05-02T01:10:17.288Z,61.63
2019-05-02T01:12:44.471Z,40.73
2019-05-02T01:15:11.806Z,41.80
2019-05-02T01:17:37.854Z,40.10
2019-05-02T01:20:05.708Z,41.20
2019-05-02T01:22:31.763Z,40.13
2019-05-02T01:24:57.836Z,44.70
2019-05-02T01:27:28.647Z,36.60
2019-05-02T01:30:01.596Z,35.73
2019-05-02T01:32:32.044Z,40.33
2019-05-02T01:35:12.099Z,40.70
2019-05-02T01:37:56.723Z,40.13
2019-05-02T01:40:22.779Z,42.20
2019-05-02T01:42:50.714Z,41.80
2019-05-02T01:45:16.835Z,39.30
2019-05-02T01:47:42.987Z,42.90
2019-05-02T01:50:09.242Z,40.07
2019-05-02T01:52:35.296Z,40.80
2019-05-02T01:55:01.548Z,36.37
2019-05-02T01:57:27.613Z,39.93
2019-05-02T01:59:53.831Z,37.83
2019-05-02T02:02:19.890Z,38.80
2019-05-02T02:04:46.034Z,45.43
2019-05-02T02:07:15.025Z,49.53
2019-05-02T02:09:44.054Z,42.60
2019-05-02T02:12:09.913Z,39.27
2019-05-02T02:14:36.069Z,41.40
2019-05-02T02:17:02.330Z,45.20
2019-05-02T02:19:30.346Z,36.00
2019-05-02T02:22:10.171Z,35.20
2019-05-02T02:24:40.671Z,33.73
2019-05-02T02:27:06.768Z,36.97
2019-05-02T02:29:32.819Z,35.43
2019-05-02T02:31:58.875Z,38.30
2019-05-02T02:34:29.253Z,46.77
2019-05-02T02:36:52.896Z,43.00
2019-05-02T02:39:18.985Z,42.30
2019-05-02T02:41:51.549Z,39.63
2019-05-02T02:44:15.092Z,43.17
2019-05-02T02:46:43.049Z,38.43
2019-05-02T02:49:14.024Z,43.27
2019-05-02T02:51:37.071Z,36.90
2019-05-02T02:54:05.471Z,41.83
2019-05-02T02:56:34.451Z,35.97
2019-05-02T02:58:59.152Z,39.17
2019-05-02T03:01:28.677Z,36.33
2019-05-02T03:03:53.239Z,45.30
2019-05-02T03:06:19.313Z,38.00
2019-05-02T03:08:48.755Z,34.47
2019-05-02T03:11:22.428Z,41.23
2019-05-02T03:14:06.665Z,57.57
2019-05-02T03:16:32.707Z,42.07
2019-05-02T03:18:58.767Z,36.67
2019-05-02T03:21:24.919Z,43.90
2019-05-02T03:24:01.336Z,42.97
2019-05-02T03:26:19.040Z,37.30
2019-05-02T03:28:57.666Z,41.23
2019-05-02T03:31:24.101Z,36.80
2019-05-02T04:09:06.459Z,46.93
2019-05-02T04:11:38.473Z,43.97
2019-05-02T04:14:01.013Z,44.27
2019-05-02T04:16:29.372Z,40.37
2019-05-02T04:18:58.227Z,35.97
2019-05-02T04:21:26.277Z,38.60
2019-05-02T04:23:52.263Z,42.57
2019-05-02T04:26:18.826Z,40.63
2019-05-02T04:28:45.482Z,39.17
2019-05-02T04:31:12.940Z,34.93
2019-05-02T04:33:38.994Z,51.40
2019-05-02T04:36:13.447Z,43.70
2019-05-02T04:38:46.605Z,32.07
2019-05-02T04:41:01.339Z,47.23
2019-05-02T04:43:28.750Z,51.17
2019-05-02T04:45:57.456Z,52.53
2019-05-02T04:48:22.842Z,48.60
2019-05-02T04:50:51.619Z,34.13
2019-05-02T04:53:18.946Z,35.37
2019-05-02T04:55:52.042Z,36.40
2019-05-02T04:58:23.979Z,30.63
2019-05-02T05:00:45.049Z,32.10
2019-05-02T05:03:15.615Z,30.10
2019-05-02T05:05:37.771Z,42.87
2019-05-02T05:08:04.873Z,43.73
2019-05-02T05:10:40.212Z,39.13
2019-05-02T05:12:58.907Z,38.97
2019-05-02T05:15:37.290Z,41.43
2019-05-02T05:17:53.047Z,56.80
2019-05-02T05:20:19.097Z,30.00
2019-05-02T05:22:45.958Z,30.07
2019-05-02T05:25:30.160Z,32.17
2019-05-02T05:27:58.742Z,37.97
2019-05-02T05:30:24.189Z,27.50
2019-05-02T05:32:50.336Z,35.43
2019-05-02T05:35:17.699Z,41.93
2019-05-02T05:37:51.500Z,42.30
2019-05-02T05:40:12.039Z,44.90
2019-05-02T05:42:38.099Z,35.23
2019-05-02T05:45:09.770Z,40.53
2019-05-02T05:47:33.323Z,36.53
2019-05-02T05:50:01.235Z,16.87
2019-05-02T05:52:27.891Z,15.33
2019-05-02T05:59:48.395Z,6.80
2019-05-02T06:02:14.827Z,3.70
2019-05-02T06:04:41.411Z,15.53
2019-05-02T06:07:07.860Z,6.47
2019-05-02T06:14:26.427Z,10.70
2019-05-02T06:31:38.114Z,6.15
2019-05-02T06:34:07.106Z,1.20
2019-05-02T06:36:36.939Z,5.80
2019-05-02T06:41:28.279Z,14.33
2019-05-02T06:43:54.812Z,3.90
2019-05-02T06:46:27.077Z,11.30
2019-05-02T06:51:20.774Z,7.27
2019-05-02T06:56:14.135Z,11.00
2019-05-02T06:58:41.912Z,5.43
2019-05-02T07:01:08.768Z,3.87
2019-05-02T07:03:34.821Z,10.10
2019-05-02T07:06:02.686Z,7.72
2019-05-02T07:08:29.278Z,8.07
2019-05-02T07:11:00.656Z,16.52
2019-05-02T07:13:24.103Z,8.97
2019-05-02T07:15:55.251Z,10.97
2019-05-02T07:18:26.491Z,7.80
2019-05-02T07:20:52.915Z,7.50
2019-05-02T07:23:18.990Z,3.60
2019-05-02T07:25:45.825Z,13.85
2019-05-02T07:28:11.882Z,8.63
2019-05-02T07:30:37.961Z,6.73
2019-05-02T07:33:04.024Z,9.30
2019-05-02T07:35:31.426Z,7.97
2019-05-02T07:37:57.504Z,17.90
2019-05-02T07:40:23.932Z,8.67
2019-05-02T07:42:50.362Z,8.13
2019-05-02T07:45:16.624Z,18.25
2019-05-02T07:47:43.042Z,8.08
2019-05-02T07:50:10.374Z,7.40
2019-05-02T07:52:36.814Z,5.67
2019-05-02T07:55:06.639Z,3.47
2019-05-02T07:57:32.376Z,6.62
2019-05-02T08:00:00.651Z,2.17
2019-05-02T08:02:26.979Z,5.53
2019-05-02T08:04:53.027Z,8.17
2019-05-02T08:07:21.185Z,7.03
2019-05-02T08:09:47.260Z,9.17
2019-05-02T08:12:13.790Z,10.40
2019-05-02T08:14:39.869Z,6.43
2019-05-02T08:17:10.526Z,11.70
2019-05-02T08:19:37.599Z,5.43
2019-05-02T08:22:04.653Z,8.83
2019-05-02T08:24:33.183Z,3.00
2019-05-02T08:27:05.734Z,4.20
2019-05-02T08:29:32.196Z,3.40
2019-05-02T08:31:58.256Z,3.33
2019-05-02T08:34:31.719Z,14.83
2019-05-02T08:36:58.854Z,6.45
2019-05-02T08:39:33.039Z,10.43
2019-05-02T08:41:56.373Z,9.00
2019-05-02T08:44:23.379Z,7.00
2019-05-02T08:46:51.525Z,11.10
2019-05-02T08:49:18.916Z,10.30
2019-05-02T08:51:45.740Z,6.40
2019-05-02T08:54:11.796Z,2.23
2019-05-02T08:56:37.856Z,6.90
2019-05-02T08:59:04.579Z,5.07
2019-05-02T09:01:35.264Z,1.83
2019-05-02T09:03:58.987Z,13.53
2019-05-02T09:06:25.036Z,7.13
2019-05-02T09:08:51.349Z,14.97
2019-05-02T09:11:19.231Z,9.10
2019-05-02T09:13:46.087Z,22.53
2019-05-02T09:16:12.753Z,13.40
2019-05-02T09:18:46.555Z,9.73
2019-05-02T09:21:06.809Z,6.13
2019-05-02T09:23:36.870Z,11.50
2019-05-02T09:26:02.554Z,5.53
2019-05-02T09:28:28.819Z,5.10
2019-05-02T09:30:57.366Z,6.23
2019-05-02T09:33:23.195Z,6.67
2019-05-02T09:35:51.544Z,7.93
2019-05-02T09:38:17.588Z,8.53
2019-05-02T09:40:47.316Z,9.47
2019-05-02T09:43:12.318Z,12.20
2019-05-02T09:45:41.032Z,11.67
2019-05-02T09:48:08.091Z,13.20
2019-05-02T09:50:37.908Z,2.23
2019-05-02T09:53:02.656Z,4.50
2019-05-02T09:55:28.708Z,2.97
2019-05-02T09:57:55.131Z,18.23
2019-05-02T10:00:36.452Z,3.10
2019-05-02T10:03:03.405Z,10.50
2019-05-02T10:05:29.571Z,9.73
2019-05-02T10:07:57.534Z,17.60
2019-05-02T10:10:24.071Z,10.93
2019-05-02T10:12:52.033Z,12.70
2019-05-02T10:15:18.450Z,11.85
2019-05-02T10:17:46.881Z,10.87
2019-05-02T10:20:13.819Z,6.23
2019-05-02T10:22:41.396Z,8.47
2019-05-02T10:25:08.383Z,8.33
2019-05-02T10:27:38.460Z,8.45
2019-05-02T10:30:11.803Z,9.27
2019-05-02T10:32:32.779Z,5.97
2019-05-02T10:34:58.947Z,6.97
2019-05-02T10:37:24.999Z,9.40
2019-05-02T10:39:52.535Z,7.00
2019-05-02T10:42:19.391Z,5.50
2019-05-02T10:44:45.459Z,9.70
2019-05-02T10:47:12.836Z,9.90
2019-05-02T10:49:47.036Z,2.30
2019-05-02T10:52:13.100Z,6.00
2019-05-02T10:54:39.289Z,3.77
2019-05-02T10:57:05.727Z,3.53
2019-05-02T10:59:32.741Z,3.37
2019-05-02T11:02:17.742Z,5.83
2019-05-02T11:04:49.203Z,13.93
2019-05-02T11:07:17.051Z,6.57
2019-05-02T11:09:43.593Z,10.40
2019-05-02T11:12:16.298Z,12.30
2019-05-02T11:14:42.290Z,6.80
2019-05-02T11:17:14.020Z,10.73
2019-05-02T11:19:41.990Z,3.30
2019-05-02T11:22:08.236Z,2.40
2019-05-02T11:24:34.295Z,3.53
2019-05-02T11:27:02.093Z,7.30
2019-05-02T11:29:28.683Z,5.23
2019-05-02T11:31:55.103Z,15.00
2019-05-02T11:34:22.128Z,11.00
2019-05-02T11:36:48.815Z,13.03
2019-05-02T11:39:24.447Z,13.33
2019-05-02T11:41:43.571Z,8.50
2019-05-02T11:44:11.660Z,11.53
2019-05-02T11:46:43.027Z,9.97
2019-05-02T11:49:05.925Z,8.83
2019-05-02T11:51:32.606Z,5.67
2019-05-02T11:54:04.128Z,12.47
2019-05-02T11:56:27.283Z,5.40
2019-05-02T11:58:53.341Z,7.40
2019-05-02T12:01:31.109Z,14.10
2019-05-02T12:03:52.435Z,22.97
2019-05-02T12:06:19.844Z,8.80
2019-05-02T12:08:49.365Z,10.30
2019-05-02T12:11:17.740Z,15.20
2019-05-02T12:13:47.259Z,14.60
2019-05-02T12:16:12.617Z,7.70
2019-05-02T12:18:39.217Z,6.30
2019-05-02T12:21:05.318Z,7.50
2019-05-02T12:23:32.523Z,18.97
2019-05-02T12:25:59.132Z,0.68
2019-05-02T12:28:25.215Z,3.57
2019-05-02T12:30:52.030Z,5.90
2019-05-02T12:33:19.912Z,7.40
2019-05-02T12:35:46.443Z,16.97
2019-05-02T12:38:12.882Z,20.93
2019-05-02T12:40:39.414Z,13.93
2019-05-02T12:43:05.847Z,11.90
2019-05-02T12:45:33.705Z,9.93
2019-05-02T12:48:02.342Z,24.27
2019-05-02T12:50:28.453Z,10.03
2019-05-02T12:52:55.753Z,9.90
2019-05-02T12:55:22.191Z,7.20
2019-05-02T12:57:48.391Z,8.93
2019-05-02T13:00:15.074Z,5.20
2019-05-02T13:02:46.584Z,5.80
2019-05-02T13:05:13.228Z,8.10
2019-05-02T13:07:42.824Z,12.35
2019-05-02T13:10:11.817Z,33.28
2019-05-02T13:12:41.853Z,9.93
2019-05-02T13:15:08.571Z,9.15
2019-05-02T13:17:42.812Z,24.00
2019-05-02T13:20:04.653Z,7.00
2019-05-02T13:22:38.679Z,11.50
2019-05-02T13:25:10.186Z,4.27
2019-05-02T13:27:43.530Z,5.65
2019-05-02T13:30:05.464Z,8.43
2019-05-02T13:32:33.799Z,7.27
2019-05-02T13:35:12.849Z,16.20
2019-05-02T13:37:39.221Z,12.00
2019-05-02T13:40:07.847Z,13.30
2019-05-02T13:42:34.283Z,8.00
2019-05-02T13:45:14.816Z,32.40
2019-05-02T13:47:42.634Z,12.43
2019-05-02T13:50:09.468Z,11.17
2019-05-02T13:52:35.526Z,5.70
2019-05-02T13:55:03.664Z,9.40
2019-05-02T13:57:35.034Z,8.47
2019-05-02T13:59:58.178Z,3.62
2019-05-02T14:02:31.774Z,5.53
2019-05-02T14:04:58.437Z,8.60
2019-05-02T14:07:24.899Z,9.30
2019-05-02T14:09:58.330Z,9.78
2019-05-02T14:12:23.475Z,12.90
2019-05-02T14:14:51.799Z,15.03
2019-05-02T14:17:18.243Z,9.73
2019-05-02T14:19:44.320Z,4.70
2019-05-02T14:22:12.764Z,0.97
2019-05-02T14:24:39.351Z,4.77
2019-05-02T14:27:07.170Z,4.73
2019-05-02T14:29:34.056Z,4.10
2019-05-02T14:32:02.521Z,6.93
2019-05-02T14:34:32.713Z,9.37
2019-05-02T14:36:59.553Z,9.07
2019-05-02T14:39:26.679Z,9.33
2019-05-02T14:41:53.266Z,10.45
2019-05-02T14:44:23.328Z,8.93
2019-05-02T14:46:48.031Z,12.20
2019-05-02T14:49:16.666Z,3.73
2019-05-02T14:51:42.431Z,4.57
2019-05-02T14:54:08.604Z,3.90
2019-05-02T14:56:37.663Z,4.50
2019-05-02T14:59:09.248Z,6.77
2019-05-02T15:01:33.333Z,3.87
2019-05-02T15:04:06.467Z,3.83
2019-05-02T15:06:27.374Z,7.77
2019-05-02T15:08:54.087Z,8.77
2019-05-02T15:11:30.399Z,16.53
2019-05-02T15:13:48.588Z,25.20
2019-05-02T15:16:17.618Z,13.17
2019-05-02T15:18:42.740Z,8.83
2019-05-02T15:21:16.137Z,4.10
2019-05-02T15:23:39.159Z,14.77
2019-05-02T15:26:05.318Z,5.40
2019-05-02T15:28:37.442Z,6.13
2019-05-02T15:31:11.799Z,4.70
2019-05-02T15:33:42.053Z,19.03
2019-05-02T15:36:11.845Z,8.63
2019-05-02T15:38:45.552Z,11.07
2019-05-02T15:41:09.030Z,17.60
2019-05-02T15:43:39.129Z,16.57
2019-05-02T15:46:03.351Z,12.67
2019-05-02T15:48:29.452Z,7.27
2019-05-02T15:51:00.043Z,5.83
2019-05-02T15:53:32.483Z,5.27
2019-05-02T15:55:59.311Z,4.03
2019-05-02T15:58:27.786Z,6.50
2019-05-02T16:01:04.552Z,4.37
2019-05-02T16:03:43.120Z,11.83
2019-05-02T16:06:09.190Z,11.45
2019-05-02T16:08:37.251Z,3.67
2019-05-02T16:11:04.172Z,8.05
2019-05-02T16:13:31.821Z,14.20
2019-05-02T16:16:02.195Z,8.73
2019-05-02T16:18:25.959Z,15.27
2019-05-02T16:21:06.959Z,6.63
2019-05-02T16:23:32.733Z,9.15
2019-05-02T16:25:56.921Z,10.03
2019-05-02T16:28:22.131Z,5.10
2019-05-02T16:30:52.453Z,5.23
2019-05-02T16:33:20.739Z,12.67
2019-05-02T16:35:52.826Z,13.97
2019-05-02T16:38:15.526Z,17.30
2019-05-02T16:40:42.077Z,12.10
2019-05-02T16:43:08.144Z,19.73
2019-05-02T16:45:34.240Z,6.92
2019-05-02T16:48:03.235Z,23.47
2019-05-02T16:50:35.180Z,9.17
2019-05-02T16:52:57.335Z,6.97
2019-05-02T16:55:26.513Z,9.70
2019-05-02T16:57:51.971Z,13.65
2019-05-02T17:00:23.117Z,8.67
2019-05-02T17:02:49.560Z,9.73
2019-05-02T17:05:16.191Z,12.33
2019-05-02T17:08:03.096Z,10.20
2019-05-02T17:10:34.980Z,10.48
2019-05-02T17:13:02.710Z,6.67
2019-05-02T17:15:34.968Z,10.57
2019-05-02T17:18:04.317Z,18.67
2019-05-02T17:20:28.131Z,2.75
2019-05-02T17:23:02.167Z,25.57
2019-05-02T17:25:22.920Z,11.23
2019-05-02T17:27:53.483Z,11.83
2019-05-02T17:30:17.975Z,8.43
2019-05-02T17:32:44.409Z,4.97
2019-05-02T17:35:14.021Z,21.80
2019-05-02T17:37:40.597Z,14.03
2019-05-02T17:40:07.972Z,12.87
2019-05-02T17:42:34.440Z,13.73
2019-05-02T17:45:03.693Z,12.73
2019-05-02T17:47:31.063Z,9.50
2019-05-02T17:49:58.331Z,5.60
2019-05-02T17:52:35.540Z,5.30
2019-05-02T17:55:03.465Z,5.17
2019-05-02T17:57:33.352Z,2.60
2019-05-02T17:59:57.489Z,3.97
2019-05-02T18:02:23.571Z,7.47
2019-05-02T18:04:54.157Z,17.17
2019-05-02T18:07:18.233Z,10.03
2019-05-02T18:09:44.821Z,7.07
2019-05-02T18:12:12.594Z,9.10
2019-05-02T18:14:41.949Z,18.20
2019-05-02T18:17:07.753Z,8.73
2019-05-02T18:19:33.820Z,2.65
2019-05-02T18:22:03.631Z,3.77
2019-05-02T18:24:27.948Z,5.10
2019-05-02T18:26:54.374Z,6.22
2019-05-02T18:29:20.892Z,13.23
2019-05-02T18:31:47.728Z,6.73
2019-05-02T18:34:20.364Z,10.90
2019-05-02T18:36:41.955Z,27.55
2019-05-02T18:39:08.411Z,31.20
2019-05-02T18:41:37.261Z,9.63
2019-05-02T18:44:03.256Z,15.18
2019-05-02T18:46:29.425Z,9.30
2019-05-02T18:48:55.853Z,5.07
2019-05-02T18:51:21.919Z,6.10
2019-05-02T18:53:48.343Z,19.53
2019-05-02T18:56:14.771Z,4.50
2019-05-02T18:58:45.245Z,6.50
2019-05-02T19:01:14.047Z,18.90
2019-05-02T19:03:37.569Z,24.00
2019-05-02T19:06:03.613Z,10.90
2019-05-02T19:08:45.371Z,10.90
2019-05-02T19:11:08.973Z,10.57
2019-05-02T19:13:32.542Z,13.85
2019-05-02T19:15:58.075Z,8.60
2019-05-02T19:18:24.503Z,12.57
2019-05-02T19:20:57.366Z,11.30
2019-05-02T19:23:22.650Z,4.90
2019-05-02T19:25:48.850Z,5.23
2019-05-02T19:28:19.579Z,12.97
2019-05-02T19:30:45.743Z,4.93
2019-05-02T19:33:12.193Z,12.18
2019-05-02T19:35:45.240Z,12.67
2019-05-02T19:38:07.072Z,13.27
2019-05-02T19:40:33.508Z,9.63
2019-05-02T19:43:06.083Z,14.30
2019-05-02T19:45:27.951Z,9.20
2019-05-02T19:47:57.671Z,16.80
2019-05-02T19:50:33.099Z,9.50
2019-05-02T19:53:02.027Z,6.37
2019-05-02T19:55:27.469Z,3.97
2019-05-02T19:57:56.668Z,9.07
2019-05-02T20:00:22.292Z,4.70
2019-05-02T20:02:48.541Z,3.40
2019-05-02T20:05:16.420Z,13.40
2019-05-02T20:07:43.319Z,16.23
2019-05-02T20:10:09.704Z,8.87
2019-05-02T20:12:40.952Z,9.47
2019-05-02T20:15:05.010Z,12.65
2019-05-02T20:17:32.532Z,6.10
2019-05-02T20:20:05.425Z,7.40
2019-05-02T20:22:28.963Z,9.23
2019-05-02T20:25:00.095Z,4.85
2019-05-02T20:27:23.999Z,5.57
2019-05-02T20:29:52.004Z,19.90
2019-05-02T20:32:18.026Z,6.73
2019-05-02T20:34:44.547Z,7.57
2019-05-02T20:37:12.735Z,23.03
2019-05-02T20:39:38.973Z,12.17
2019-05-02T20:42:05.459Z,10.40
2019-05-02T20:44:32.167Z,12.87
2019-05-02T20:46:58.811Z,19.73
2019-05-02T20:49:25.348Z,3.07
2019-05-02T20:51:51.928Z,6.90
2019-05-02T20:54:18.155Z,6.63
2019-05-02T20:56:44.583Z,9.33
2019-05-02T20:59:12.645Z,11.73
2019-05-02T21:01:38.624Z,3.77
2019-05-02T21:04:05.100Z,16.97
2019-05-02T21:06:40.802Z,9.13
2019-05-02T21:09:09.492Z,6.87
2019-05-02T21:11:36.204Z,4.45
2019-05-02T21:14:02.726Z,10.33
2019-05-02T21:16:29.159Z,7.57
2019-05-02T21:18:55.595Z,3.10
2019-05-02T21:21:22.934Z,9.37
2019-05-02T21:23:49.415Z,4.80
2019-05-02T21:26:15.460Z,11.80
2019-05-02T21:28:42.810Z,6.57
2019-05-02T21:31:09.083Z,6.20
2019-05-02T21:33:37.267Z,29.35
2019-05-02T21:36:04.219Z,12.20
2019-05-02T21:38:31.958Z,9.95
2019-05-02T21:40:58.692Z,9.93
2019-05-02T21:43:25.156Z,11.70
2019-05-02T21:45:51.712Z,17.67
2019-05-02T21:48:18.331Z,9.80
2019-05-02T21:50:46.284Z,4.00
2019-05-02T21:53:16.813Z,7.97
2019-05-02T21:55:45.196Z,10.03
2019-05-02T21:58:12.111Z,8.55
2019-05-02T22:00:58.036Z,9.53
2019-05-02T22:03:24.099Z,6.77
2019-05-02T22:05:50.519Z,12.23
2019-05-02T22:08:17.076Z,9.53
2019-05-02T22:10:43.500Z,7.57
2019-05-02T22:13:09.932Z,7.53
2019-05-02T22:15:36.364Z,9.13
2019-05-02T22:18:03.139Z,18.13
2019-05-02T22:20:29.191Z,5.53
2019-05-02T22:22:55.655Z,2.77
2019-05-02T22:25:22.159Z,3.60
2019-05-02T22:27:48.363Z,6.30
2019-05-02T22:30:14.803Z,13.60
2019-05-02T22:32:42.623Z,4.03
2019-05-02T22:35:09.207Z,11.00
2019-05-02T22:37:36.744Z,10.78
2019-05-02T22:40:06.612Z,4.30
2019-05-02T22:42:33.048Z,12.20
2019-05-02T22:45:01.698Z,5.85
2019-05-02T22:47:27.814Z,14.50
2019-05-02T22:49:53.867Z,6.80
2019-05-02T22:52:21.800Z,6.80
2019-05-02T22:54:48.163Z,3.73
2019-05-02T22:57:14.470Z,7.03
2019-05-02T22:59:42.253Z,3.33
2019-05-02T23:02:08.567Z,5.63
2019-05-02T23:04:35.025Z,13.67
2019-05-02T23:07:02.296Z,10.03
2019-05-02T23:09:28.652Z,7.67
2019-05-02T23:11:54.748Z,12.27
2019-05-02T23:14:22.212Z,7.47
2019-05-02T23:16:48.544Z,7.27
2019-05-02T23:19:15.583Z,4.30
2019-05-02T23:21:42.472Z,9.47
2019-05-02T23:24:11.717Z,4.60
2019-05-02T23:26:57.290Z,1.17
2019-05-02T23:29:23.392Z,1.93
2019-05-02T23:31:49.535Z,1.90
2019-05-02T23:34:16.004Z,10.37
2019-05-02T23:36:42.048Z,8.20
2019-05-02T23:39:08.988Z,26.80
2019-05-02T23:41:35.164Z,8.83
2019-05-02T23:44:02.805Z,8.73
2019-05-02T23:46:29.520Z,8.20
2019-05-02T23:48:55.609Z,6.77
2019-05-02T23:51:22.633Z,7.00
2019-05-02T23:53:48.788Z,11.73
2019-05-02T23:56:15.476Z,11.53
2019-05-02T23:58:42.608Z,1.70
